METAR Data
IDs: Format: Raw Decoded Include TAF

Data at: 1244 UTC 20 Oct 2021

ENGM 201220Z 20014KT 9999 4500SE VCFG FEW002 BKN004 09/09 Q0980 BECMG BKN010